Terminal Aerodrome Forecast
Issued by NWS Pendleton, OR

Home | Current Version | Previous Version | Text Only | Print | Product List | Glossary On
Versions: 1 2 3 4 5 6 7 8 9 10 11 12 13 14
000
FTUS46 KPDT 211100
TAFPDT
TAF
KPDT 211120Z 2112/2212 15007KT P6SM BKN200
     FM211700 32009KT P6SM OVC120
     FM220300 28009KT P6SM OVC080
     FM220600 25010KT P6SM -SHRA OVC050=

USA.gov is the U.S. government's official web portal to all federal, state and local government web resources and services.